sensor_id;sensor_type;location;lat;lon;timestamp;P1;durP1;ratioP1;P2;durP2;ratioP2
49980;SDS011;35871;51.594;7.138;2023-07-24T05:49:31;6.17;;;3.87;;
49980;SDS011;35871;51.594;7.138;2023-07-24T06:00:52;7.25;;;4.35;;
49980;SDS011;35871;51.594;7.138;2023-07-24T06:12:25;5.70;;;3.38;;
49980;SDS011;35871;51.594;7.138;2023-07-24T06:17:40;5.83;;;4.10;;
49980;SDS011;35871;51.594;7.138;2023-07-24T06:23:00;4.95;;;3.40;;
49980;SDS011;35871;51.594;7.138;2023-07-24T06:33:49;7.38;;;4.40;;
49980;SDS011;35871;51.594;7.138;2023-07-24T06:44:35;4.95;;;3.70;;
49980;SDS011;35871;51.594;7.138;2023-07-24T06:55:25;4.95;;;3.03;;
49980;SDS011;35871;51.594;7.138;2023-07-24T07:00:26;5.50;;;3.85;;
49980;SDS011;35871;51.594;7.138;2023-07-24T07:05:27;3.50;;;2.15;;
49980;SDS011;35871;51.594;7.138;2023-07-24T07:10:28;6.18;;;4.30;;
49980;SDS011;35871;51.594;7.138;2023-07-24T07:15:29;4.05;;;2.95;;
49980;SDS011;35871;51.594;7.138;2023-07-24T07:20:30;6.20;;;4.50;;
49980;SDS011;35871;51.594;7.138;2023-07-24T07:25:31;10.23;;;7.28;;
49980;SDS011;35871;51.594;7.138;2023-07-24T07:30:32;11.65;;;9.63;;
49980;SDS011;35871;51.594;7.138;2023-07-24T07:35:33;18.95;;;16.88;;
49980;SDS011;35871;51.594;7.138;2023-07-24T07:40:36;19.98;;;17.10;;
49980;SDS011;35871;51.594;7.138;2023-07-24T07:45:39;11.63;;;10.38;;
49980;SDS011;35871;51.594;7.138;2023-07-24T07:50:40;16.92;;;12.45;;
49980;SDS011;35871;51.594;7.138;2023-07-24T07:55:41;18.50;;;14.05;;
49980;SDS011;35871;51.594;7.138;2023-07-24T08:00:42;23.10;;;20.70;;
49980;SDS011;35871;51.594;7.138;2023-07-24T08:05:43;20.02;;;17.88;;
49980;SDS011;35871;51.594;7.138;2023-07-24T08:10:44;19.13;;;16.50;;
49980;SDS011;35871;51.594;7.138;2023-07-24T08:15:45;15.95;;;14.35;;
49980;SDS011;35871;51.594;7.138;2023-07-24T08:20:46;14.93;;;11.75;;
49980;SDS011;35871;51.594;7.138;2023-07-24T08:25:51;18.10;;;14.70;;
49980;SDS011;35871;51.594;7.138;2023-07-24T08:30:56;12.95;;;11.65;;
49980;SDS011;35871;51.594;7.138;2023-07-24T08:36:07;10.70;;;9.60;;
49980;SDS011;35871;51.594;7.138;2023-07-24T08:41:09;13.30;;;11.85;;
49980;SDS011;35871;51.594;7.138;2023-07-24T08:46:10;13.52;;;10.35;;
49980;SDS011;35871;51.594;7.138;2023-07-24T08:51:12;10.00;;;8.98;;
49980;SDS011;35871;51.594;7.138;2023-07-24T08:56:13;11.20;;;9.88;;
49980;SDS011;35871;51.594;7.138;2023-07-24T09:01:15;9.77;;;8.82;;
49980;SDS011;35871;51.594;7.138;2023-07-24T09:06:17;10.40;;;8.75;;
49980;SDS011;35871;51.594;7.138;2023-07-24T09:11:19;8.10;;;7.25;;
49980;SDS011;35871;51.594;7.138;2023-07-24T09:16:20;8.43;;;7.45;;
49980;SDS011;35871;51.594;7.138;2023-07-24T09:21:29;7.10;;;5.70;;
49980;SDS011;35871;51.594;7.138;2023-07-24T09:26:32;5.88;;;5.25;;
49980;SDS011;35871;51.594;7.138;2023-07-24T09:31:34;6.40;;;5.05;;
49980;SDS011;35871;51.594;7.138;2023-07-24T09:36:38;4.35;;;3.85;;
49980;SDS011;35871;51.594;7.138;2023-07-24T09:41:39;4.82;;;3.75;;
49980;SDS011;35871;51.594;7.138;2023-07-24T09:46:41;4.75;;;3.58;;
49980;SDS011;35871;51.594;7.138;2023-07-24T09:51:44;4.60;;;3.95;;
49980;SDS011;35871;51.594;7.138;2023-07-24T09:56:49;3.67;;;3.13;;
49980;SDS011;35871;51.594;7.138;2023-07-24T10:01:51;4.13;;;2.97;;
49980;SDS011;35871;51.594;7.138;2023-07-24T10:06:53;6.18;;;2.80;;
49980;SDS011;35871;51.594;7.138;2023-07-24T10:11:57;3.42;;;2.90;;
49980;SDS011;35871;51.594;7.138;2023-07-24T10:17:00;5.07;;;2.70;;
49980;SDS011;35871;51.594;7.138;2023-07-24T10:22:01;4.18;;;2.50;;
49980;SDS011;35871;51.594;7.138;2023-07-24T10:27:03;3.72;;;2.53;;
49980;SDS011;35871;51.594;7.138;2023-07-24T10:32:05;3.47;;;2.40;;
49980;SDS011;35871;51.594;7.138;2023-07-24T10:37:17;4.32;;;2.67;;
49980;SDS011;35871;51.594;7.138;2023-07-24T10:42:22;5.32;;;2.50;;
49980;SDS011;35871;51.594;7.138;2023-07-24T10:47:23;5.18;;;2.50;;
49980;SDS011;35871;51.594;7.138;2023-07-24T10:52:32;3.85;;;3.00;;
49980;SDS011;35871;51.594;7.138;2023-07-24T10:57:34;9.05;;;5.15;;
49980;SDS011;35871;51.594;7.138;2023-07-24T11:02:35;4.10;;;2.88;;
49980;SDS011;35871;51.594;7.138;2023-07-24T11:07:36;5.93;;;3.55;;
49980;SDS011;35871;51.594;7.138;2023-07-24T11:12:38;5.80;;;3.10;;
49980;SDS011;35871;51.594;7.138;2023-07-24T11:17:41;6.18;;;3.40;;
49980;SDS011;35871;51.594;7.138;2023-07-24T11:22:44;4.53;;;3.15;;
49980;SDS011;35871;51.594;7.138;2023-07-24T11:27:46;4.22;;;3.28;;
49980;SDS011;35871;51.594;7.138;2023-07-24T11:32:47;4.85;;;2.83;;
49980;SDS011;35871;51.594;7.138;2023-07-24T11:37:57;5.32;;;2.97;;
49980;SDS011;35871;51.594;7.138;2023-07-24T11:42:58;3.90;;;3.20;;
49980;SDS011;35871;51.594;7.138;2023-07-24T11:47:59;4.55;;;3.15;;
49980;SDS011;35871;51.594;7.138;2023-07-24T11:53:00;4.78;;;2.97;;
49980;SDS011;35871;51.594;7.138;2023-07-24T11:58:01;5.38;;;3.80;;
49980;SDS011;35871;51.594;7.138;2023-07-24T12:03:42;5.05;;;3.10;;
49980;SDS011;35871;51.594;7.138;2023-07-24T18:00:45;5.55;;;3.00;;
49980;SDS011;35871;51.594;7.138;2023-07-24T18:05:46;4.25;;;3.22;;
49980;SDS011;35871;51.594;7.138;2023-07-24T18:11:22;8.27;;;3.58;;
49980;SDS011;35871;51.594;7.138;2023-07-24T18:16:23;12.93;;;5.28;;
49980;SDS011;35871;51.594;7.138;2023-07-24T18:21:42;7.60;;;4.65;;
49980;SDS011;35871;51.594;7.138;2023-07-24T18:26:48;11.85;;;5.95;;
49980;SDS011;35871;51.594;7.138;2023-07-24T18:32:10;6.55;;;4.57;;
49980;SDS011;35871;51.594;7.138;2023-07-24T18:37:26;8.07;;;4.53;;
49980;SDS011;35871;51.594;7.138;2023-07-24T18:43:04;16.10;;;9.88;;
49980;SDS011;35871;51.594;7.138;2023-07-24T18:48:25;24.88;;;15.30;;
49980;SDS011;35871;51.594;7.138;2023-07-24T18:53:32;35.17;;;25.47;;
49980;SDS011;35871;51.594;7.138;2023-07-24T18:58:46;38.80;;;27.70;;
49980;SDS011;35871;51.594;7.138;2023-07-24T19:04:12;6.30;;;5.10;;
49980;SDS011;35871;51.594;7.138;2023-07-24T19:09:13;10.35;;;6.95;;
